Time;durP1;ratioP1;P1;durP2;ratioP2;P2;SDS_P1;SDS_P2;PMS_P1;PMS_P2;Temp;Humidity;BMP_temperature;BMP_pressure;BME280_temperature;BME280_humidity;BME280_pressure;Samples;Min_cycle;Max_cycle;Signal;HPM_P1;HPM_P2
2021/06/29 00:02:23;;;;;;;2.58;0.70;;;;;;;;;;4905555;29;20216;-62
2021/06/29 00:04:48;;;;;;;;;;;;;;;;;;4906995;29;20658;-65
2021/06/29 00:07:14;;;;;;;5.00;0.80;;;;;;;;;;4909065;29;19978;-64
2021/06/29 00:09:43;;;;;;;3.80;1.02;;;;;;;;;;4907347;29;20256;-64
2021/06/29 00:12:09;;;;;;;2.53;0.80;;;;;;;;;;4906812;29;20131;-64
2021/06/29 00:14:35;;;;;;;3.15;0.80;;;;;;;;;;4906377;29;22073;-65
2021/06/29 00:17:01;;;;;;;1.75;0.60;;;;;;;;;;4903998;29;20193;-64
2021/06/29 00:19:30;;;;;;;4.57;1.23;;;;;;;;;;4883563;29;20048;-58
2021/06/29 00:21:55;;;;;;;6.60;1.00;;;;;;;;;;4902175;29;20047;-59
2021/06/29 00:24:21;;;;;;;4.65;0.90;;;;;;;;;;4899362;29;20055;-59
2021/06/29 00:26:47;;;;;;;5.78;0.90;;;;;;;;;;4903239;29;20040;-60
2021/06/29 00:29:13;;;;;;;8.63;1.20;;;;;;;;;;4900550;29;20069;-59
2021/06/29 00:31:39;;;;;;;4.32;1.02;;;;;;;;;;4896997;29;20071;-59
2021/06/29 00:34:04;;;;;;;3.65;0.93;;;;;;;;;;4899825;29;20040;-59
2021/06/29 00:36:30;;;;;;;5.47;0.93;;;;;;;;;;4899781;29;20040;-59
2021/06/29 00:38:56;;;;;;;3.78;0.80;;;;;;;;;;4903517;29;20076;-58
2021/06/29 00:41:22;;;;;;;7.90;1.00;;;;;;;;;;4881691;29;20120;-59
2021/06/29 00:43:49;;;;;;;11.80;1.33;;;;;;;;;;4903853;29;20048;-58
2021/06/29 00:46:15;;;;;;;4.57;0.82;;;;;;;;;;4904626;29;20032;-60
2021/06/29 00:48:41;;;;;;;5.75;1.10;;;;;;;;;;4904621;29;20486;-60
2021/06/29 00:51:07;;;;;;;4.35;0.90;;;;;;;;;;4904170;29;20066;-58
2021/06/29 00:53:33;;;;;;;4.13;1.35;;;;;;;;;;4904157;29;20103;-59
2021/06/29 00:55:59;;;;;;;3.05;0.80;;;;;;;;;;4903753;29;20042;-60
2021/06/29 00:58:25;;;;;;;4.45;1.20;;;;;;;;;;4885764;29;20072;-59
2021/06/29 01:00:53;;;;;;;7.97;3.85;;;;;;;;;;4902407;29;20442;-60
2021/06/29 01:03:19;;;;;;;9.27;1.45;;;;;;;;;;4902297;29;20103;-60
2021/06/29 01:05:45;;;;;;;2.95;0.85;;;;;;;;;;4904806;29;20036;-60
2021/06/29 01:08:11;;;;;;;4.15;1.20;;;;;;;;;;4904956;29;20103;-60
2021/06/29 01:10:37;;;;;;;6.32;1.05;;;;;;;;;;4904443;29;20521;-60
2021/06/29 01:13:03;;;;;;;5.88;0.95;;;;;;;;;;4901030;29;20059;-60
2021/06/29 01:15:29;;;;;;;2.83;0.73;;;;;;;;;;4901652;29;21866;-58
2021/06/29 01:17:56;;;;;;;10.18;1.23;;;;;;;;;;4903368;29;20075;-60
2021/06/29 01:20:25;;;;;;;5.47;0.80;;;;;;;;;;4904620;29;20139;-59
2021/06/29 01:22:55;;;;;;;5.75;1.08;;;;;;;;;;4906594;29;20541;-58
2021/06/29 01:25:23;;;;;;;3.95;1.00;;;;;;;;;;4903947;29;20450;-58
2021/06/29 01:33:48;;;;;;;5.97;0.80;;;;;;;;;;4902517;29;20537;-60
2021/06/29 01:36:14;;;;;;;3.10;1.00;;;;;;;;;;4902290;29;20048;-63
2021/06/29 01:38:40;;;;;;;9.57;1.92;;;;;;;;;;4903913;29;20131;-63
2021/06/29 01:41:07;;;;;;;4.63;1.45;;;;;;;;;;4908115;29;20042;-63
2021/06/29 01:43:40;;;;;;;5.10;1.08;;;;;;;;;;4907373;29;20058;-62
2021/06/29 01:46:06;;;;;;;3.75;1.00;;;;;;;;;;4908215;29;20151;-60
2021/06/29 01:48:32;;;;;;;3.47;0.90;;;;;;;;;;4907884;29;20481;-63
2021/06/29 01:50:58;;;;;;;3.13;0.90;;;;;;;;;;4908324;29;20040;-60
2021/06/29 01:53:24;;;;;;;3.60;0.98;;;;;;;;;;4907736;29;20504;-61
2021/06/29 01:55:50;;;;;;;3.58;1.02;;;;;;;;;;4908589;29;20051;-59
2021/06/29 01:58:25;;;;;;;4.15;0.93;;;;;;;;;;4908563;29;20040;-60
2021/06/29 02:00:52;;;;;;;6.28;0.90;;;;;;;;;;4906592;29;20473;-60
2021/06/29 02:03:17;;;;;;;4.82;0.88;;;;;;;;;;4907788;29;20052;-61
2021/06/29 02:05:43;;;;;;;2.72;0.95;;;;;;;;;;4907873;29;20054;-61
2021/06/29 02:08:09;;;;;;;3.80;1.10;;;;;;;;;;4908577;29;20390;-60
2021/06/29 02:10:35;;;;;;;4.65;1.08;;;;;;;;;;4906372;29;20044;-62
2021/06/29 02:13:01;;;;;;;4.13;1.08;;;;;;;;;;4908186;29;20142;-60
2021/06/29 02:15:27;;;;;;;5.55;0.98;;;;;;;;;;4904956;29;20048;-61
2021/06/29 02:17:53;;;;;;;4.18;0.70;;;;;;;;;;4906659;29;20149;-59
2021/06/29 02:20:19;;;;;;;4.07;1.10;;;;;;;;;;4905939;29;20031;-59
2021/06/29 02:22:46;;;;;;;3.78;1.33;;;;;;;;;;4905717;29;20049;-60
2021/06/29 02:25:12;;;;;;;3.17;0.90;;;;;;;;;;4907199;29;20044;-60
2021/06/29 02:27:38;;;;;;;5.03;1.10;;;;;;;;;;4905461;29;20063;-62
2021/06/29 02:30:04;;;;;;;4.50;1.30;;;;;;;;;;4906715;29;20236;-63
2021/06/29 02:32:30;;;;;;;6.50;1.40;;;;;;;;;;4906261;29;20123;-60
2021/06/29 02:34:56;;;;;;;7.32;1.25;;;;;;;;;;4906606;29;20417;-60
2021/06/29 02:37:22;;;;;;;9.57;1.20;;;;;;;;;;4906373;29;20421;-60
2021/06/29 02:39:48;;;;;;;9.20;1.02;;;;;;;;;;4907143;29;20043;-60
2021/06/29 02:42:14;;;;;;;6.13;0.90;;;;;;;;;;4906833;29;20498;-61
2021/06/29 02:44:41;;;;;;;4.72;1.02;;;;;;;;;;4905489;29;20051;-61
2021/06/29 02:47:07;;;;;;;11.63;1.08;;;;;;;;;;4907393;29;20132;-61
2021/06/29 02:49:33;;;;;;;7.78;1.50;;;;;;;;;;4903863;29;20044;-61
2021/06/29 02:51:59;;;;;;;8.70;1.38;;;;;;;;;;4903856;29;20134;-61
2021/06/29 02:54:25;;;;;;;8.00;1.25;;;;;;;;;;4905769;29;20797;-60
2021/06/29 02:56:50;;;;;;;10.00;1.42;;;;;;;;;;4907011;29;20099;-58
2021/06/29 02:59:17;;;;;;;8.77;1.27;;;;;;;;;;4907099;29;20044;-61
2021/06/29 03:01:43;;;;;;;6.25;1.40;;;;;;;;;;4901965;29;20043;-61
2021/06/29 03:04:09;;;;;;;8.13;1.60;;;;;;;;;;4901227;29;20517;-65
2021/06/29 03:06:36;;;;;;;6.45;1.80;;;;;;;;;;4905569;29;20115;-65
2021/06/29 03:09:03;;;;;;;3.83;1.17;;;;;;;;;;4905872;29;20548;-64
2021/06/29 03:11:29;;;;;;;10.27;1.40;;;;;;;;;;4907470;29;20151;-64
2021/06/29 03:13:55;;;;;;;6.80;1.08;;;;;;;;;;4892613;29;20075;-63
2021/06/29 03:16:21;;;;;;;6.85;1.25;;;;;;;;;;4906458;29;20086;-63
2021/06/29 03:18:46;;;;;;;3.85;1.08;;;;;;;;;;4904355;29;20457;-63
2021/06/29 03:21:12;;;;;;;6.22;1.13;;;;;;;;;;4907791;29;20600;-63
2021/06/29 03:23:39;;;;;;;4.32;1.20;;;;;;;;;;4903720;29;20079;-63
2021/06/29 03:26:05;;;;;;;6.72;1.95;;;;;;;;;;4903951;29;20397;-63
2021/06/29 03:28:31;;;;;;;10.43;1.90;;;;;;;;;;4906740;29;20047;-64
2021/06/29 03:30:57;;;;;;;4.80;1.50;;;;;;;;;;4908139;29;20044;-63
2021/06/29 03:33:23;;;;;;;6.93;1.80;;;;;;;;;;4904957;29;20040;-65
2021/06/29 03:35:48;;;;;;;5.65;1.45;;;;;;;;;;4907319;29;20154;-62
2021/06/29 03:38:15;;;;;;;6.88;1.38;;;;;;;;;;4908662;29;20410;-64
2021/06/29 03:40:40;;;;;;;8.23;1.60;;;;;;;;;;4905780;29;20054;-64
2021/06/29 03:43:06;;;;;;;5.95;1.40;;;;;;;;;;4907636;29;20048;-65
2021/06/29 03:45:32;;;;;;;11.02;1.60;;;;;;;;;;4906951;29;20059;-64
2021/06/29 03:47:58;;;;;;;11.35;1.67;;;;;;;;;;4906727;29;20035;-64
2021/06/29 03:50:27;;;;;;;5.05;1.55;;;;;;;;;;4904706;29;20109;-64
2021/06/29 03:52:53;;;;;;;10.38;1.60;;;;;;;;;;4904311;29;20036;-64
2021/06/29 03:55:19;;;;;;;10.10;1.25;;;;;;;;;;4905746;29;20051;-63
2021/06/29 03:57:45;;;;;;;11.38;1.50;;;;;;;;;;4908034;29;20526;-63
2021/06/29 04:00:11;;;;;;;9.85;1.63;;;;;;;;;;4908039;29;20052;-64
2021/06/29 04:02:37;;;;;;;8.23;1.05;;;;;;;;;;4905840;29;20520;-64
2021/06/29 04:05:05;;;;;;;6.53;1.60;;;;;;;;;;4905678;29;20111;-63
2021/06/29 04:07:31;;;;;;;7.68;1.40;;;;;;;;;;4903903;29;20394;-63
2021/06/29 04:09:57;;;;;;;7.45;1.48;;;;;;;;;;4905956;29;20051;-63
2021/06/29 04:12:23;;;;;;;8.15;1.92;;;;;;;;;;4904561;29;20047;-64
2021/06/29 04:14:48;;;;;;;5.05;1.10;;;;;;;;;;4905442;29;20098;-64
2021/06/29 04:17:15;;;;;;;3.53;1.13;;;;;;;;;;4908102;29;20059;-64
2021/06/29 04:19:41;;;;;;;4.68;1.20;;;;;;;;;;4910961;29;20044;-64
2021/06/29 04:22:07;;;;;;;5.20;1.10;;;;;;;;;;4891184;29;20387;-64
2021/06/29 04:24:34;;;;;;;4.30;1.35;;;;;;;;;;4890288;29;20559;-64
2021/06/29 04:27:00;;;;;;;4.18;1.20;;;;;;;;;;4906865;29;20087;-63
2021/06/29 04:29:26;;;;;;;3.33;1.10;;;;;;;;;;4906339;29;20078;-62
2021/06/29 04:31:52;;;;;;;6.03;1.33;;;;;;;;;;4910301;29;20056;-63
2021/06/29 04:34:20;;;;;;;4.60;1.30;;;;;;;;;;4911307;29;20104;-63
2021/06/29 04:36:46;;;;;;;10.52;1.30;;;;;;;;;;4909504;29;20064;-64
2021/06/29 04:39:13;;;;;;;6.13;1.20;;;;;;;;;;4907391;29;20080;-61
2021/06/29 04:41:39;;;;;;;6.90;1.27;;;;;;;;;;4905189;29;20047;-61
2021/06/29 04:44:05;;;;;;;3.35;1.10;;;;;;;;;;4906208;29;20052;-62
2021/06/29 04:46:31;;;;;;;4.43;1.17;;;;;;;;;;4907091;29;20115;-60
2021/06/29 04:48:57;;;;;;;11.23;1.63;;;;;;;;;;4889142;29;20530;-59
2021/06/29 04:51:24;;;;;;;4.63;1.33;;;;;;;;;;4903171;29;20044;-60
2021/06/29 04:53:49;;;;;;;7.25;1.25;;;;;;;;;;4904472;29;20040;-60
2021/06/29 04:56:19;;;;;;;5.90;1.33;;;;;;;;;;4903765;29;20448;-62
2021/06/29 04:58:52;;;;;;;6.18;1.13;;;;;;;;;;4902006;29;20059;-60
2021/06/29 05:01:18;;;;;;;9.32;1.58;;;;;;;;;;4906654;29;20040;-61
2021/06/29 05:03:44;;;;;;;8.38;1.33;;;;;;;;;;4905017;29;20674;-61
2021/06/29 05:06:10;;;;;;;7.68;1.65;;;;;;;;;;4905779;29;20039;-58
2021/06/29 05:08:36;;;;;;;6.43;0.93;;;;;;;;;;4905357;29;20096;-60
2021/06/29 05:11:02;;;;;;;4.15;1.02;;;;;;;;;;4904355;29;20036;-60
2021/06/29 05:13:28;;;;;;;3.85;1.17;;;;;;;;;;4901677;29;20324;-60
2021/06/29 05:15:54;;;;;;;4.18;1.20;;;;;;;;;;4903379;29;20127;-59
2021/06/29 05:18:20;;;;;;;4.50;1.08;;;;;;;;;;4888822;29;20187;-61
2021/06/29 05:20:46;;;;;;;9.07;1.35;;;;;;;;;;4907829;29;20044;-60
2021/06/29 05:23:12;;;;;;;4.00;1.10;;;;;;;;;;4907723;29;20063;-60
2021/06/29 05:25:37;;;;;;;9.95;1.50;;;;;;;;;;4906191;29;22401;-61
2021/06/29 05:28:03;;;;;;;5.05;1.35;;;;;;;;;;4906141;29;20036;-61
2021/06/29 05:30:29;;;;;;;3.20;1.13;;;;;;;;;;4905457;29;20036;-63
2021/06/29 05:32:55;;;;;;;4.13;1.30;;;;;;;;;;4906745;29;20084;-62
2021/06/29 05:35:21;;;;;;;3.90;0.93;;;;;;;;;;4905727;29;20047;-62
2021/06/29 05:37:47;;;;;;;6.65;1.10;;;;;;;;;;4907572;29;20040;-62
2021/06/29 05:40:13;;;;;;;5.53;1.00;;;;;;;;;;4905776;29;20040;-62
2021/06/29 05:42:39;;;;;;;5.70;1.35;;;;;;;;;;4904903;29;20106;-63
2021/06/29 05:45:06;;;;;;;4.57;1.08;;;;;;;;;;4903992;29;20048;-63
2021/06/29 05:47:35;;;;;;;5.65;1.27;;;;;;;;;;4904852;29;20051;-62
2021/06/29 05:50:01;;;;;;;3.83;0.95;;;;;;;;;;4904790;29;20465;-62
2021/06/29 05:52:27;;;;;;;4.13;1.30;;;;;;;;;;4905081;29;20103;-62
2021/06/29 05:54:53;;;;;;;3.67;1.23;;;;;;;;;;4904741;29;20095;-63
2021/06/29 05:57:19;;;;;;;13.50;1.30;;;;;;;;;;4906255;29;20040;-63
2021/06/29 05:59:45;;;;;;;9.25;1.48;;;;;;;;;;4905982;29;20043;-61
2021/06/29 06:02:11;;;;;;;5.25;1.20;;;;;;;;;;4904652;29;20040;-63
2021/06/29 06:04:37;;;;;;;11.15;1.40;;;;;;;;;;4905237;29;20286;-62
2021/06/29 06:07:03;;;;;;;4.10;1.00;;;;;;;;;;4906629;29;20040;-63
2021/06/29 06:09:29;;;;;;;3.45;1.15;;;;;;;;;;4906298;29;21998;-63
2021/06/29 06:11:55;;;;;;;3.60;1.30;;;;;;;;;;4906788;29;20023;-62
2021/06/29 06:14:21;;;;;;;8.07;1.20;;;;;;;;;;4905769;29;20087;-63
2021/06/29 06:16:47;;;;;;;6.97;1.60;;;;;;;;;;4906048;29;20058;-63
2021/06/29 06:19:12;;;;;;;5.53;1.38;;;;;;;;;;4906181;29;20401;-63
2021/06/29 06:21:38;;;;;;;10.57;1.42;;;;;;;;;;4903644;29;20115;-62
2021/06/29 06:24:05;;;;;;;4.70;1.40;;;;;;;;;;4903179;29;20031;-62
2021/06/29 06:26:31;;;;;;;3.65;1.30;;;;;;;;;;4904253;29;20482;-62
2021/06/29 06:28:57;;;;;;;8.48;1.55;;;;;;;;;;4905365;29;20036;-61
2021/06/29 06:31:23;;;;;;;4.72;1.20;;;;;;;;;;4887332;29;20036;-61
2021/06/29 06:33:49;;;;;;;3.35;1.38;;;;;;;;;;4906346;29;20044;-62
2021/06/29 06:36:15;;;;;;;5.80;1.60;;;;;;;;;;4906249;29;20028;-62
2021/06/29 06:38:40;;;;;;;9.52;1.50;;;;;;;;;;4906204;29;20385;-63
2021/06/29 06:41:06;;;;;;;6.32;1.40;;;;;;;;;;4909619;29;20059;-63
2021/06/29 06:43:32;;;;;;;6.68;1.55;;;;;;;;;;4907048;29;20084;-62
2021/06/29 06:45:58;;;;;;;6.28;1.83;;;;;;;;;;4907616;29;20161;-62
2021/06/29 06:48:24;;;;;;;4.82;1.40;;;;;;;;;;4907136;29;20441;-62
2021/06/29 06:50:50;;;;;;;4.22;1.45;;;;;;;;;;4907303;29;20506;-63
2021/06/29 06:53:16;;;;;;;4.65;1.52;;;;;;;;;;4906373;29;20558;-62
2021/06/29 06:55:41;;;;;;;2.92;1.08;;;;;;;;;;4906452;29;20450;-62
2021/06/29 06:58:07;;;;;;;5.25;1.88;;;;;;;;;;4908392;29;20254;-62
2021/06/29 07:00:33;;;;;;;6.60;1.42;;;;;;;;;;4906901;29;20078;-63
2021/06/29 07:02:59;;;;;;;5.30;1.52;;;;;;;;;;4907003;29;20050;-62
2021/06/29 07:05:25;;;;;;;7.28;1.35;;;;;;;;;;4906781;29;20907;-62
2021/06/29 07:07:51;;;;;;;4.28;1.30;;;;;;;;;;4905525;29;20063;-63
2021/06/29 07:10:17;;;;;;;7.30;1.73;;;;;;;;;;4905148;29;20035;-63
2021/06/29 07:12:43;;;;;;;3.28;1.27;;;;;;;;;;4904513;29;20058;-62
2021/06/29 07:15:09;;;;;;;6.22;1.25;;;;;;;;;;4905155;29;20048;-61
2021/06/29 07:17:36;;;;;;;3.75;1.00;;;;;;;;;;4904208;29;20040;-63
2021/06/29 07:20:03;;;;;;;4.28;1.23;;;;;;;;;;4904696;29;20083;-62
2021/06/29 07:22:29;;;;;;;5.68;1.17;;;;;;;;;;4904612;29;20044;-62
2021/06/29 07:24:55;;;;;;;14.60;1.55;;;;;;;;;;4903149;29;20454;-61
2021/06/29 07:27:21;;;;;;;4.22;1.38;;;;;;;;;;4905190;29;20274;-62
2021/06/29 07:29:47;;;;;;;5.43;1.40;;;;;;;;;;4907796;29;20059;-61
2021/06/29 07:32:13;;;;;;;11.75;1.60;;;;;;;;;;4889518;29;20044;-63
2021/06/29 07:34:38;;;;;;;6.57;1.23;;;;;;;;;;4904863;29;20485;-61
2021/06/29 07:37:05;;;;;;;4.65;1.42;;;;;;;;;;4907279;29;20049;-61
2021/06/29 07:39:31;;;;;;;5.10;1.38;;;;;;;;;;4902976;29;20170;-61
2021/06/29 07:41:57;;;;;;;7.95;1.63;;;;;;;;;;4905468;29;20044;-61
2021/06/29 07:44:23;;;;;;;4.82;1.33;;;;;;;;;;4904520;29;20075;-63
2021/06/29 07:46:50;;;;;;;5.97;1.42;;;;;;;;;;4907812;29;20123;-60
2021/06/29 07:49:16;;;;;;;3.63;1.48;;;;;;;;;;4906078;29;20616;-61
2021/06/29 07:51:42;;;;;;;3.85;1.40;;;;;;;;;;4888530;29;20040;-62
2021/06/29 07:54:07;;;;;;;8.23;1.50;;;;;;;;;;4905585;29;20072;-62
2021/06/29 07:56:37;;;;;;;3.10;0.95;;;;;;;;;;4905757;29;20552;-62
2021/06/29 07:59:03;;;;;;;6.60;1.40;;;;;;;;;;4903590;29;20134;-63
2021/06/29 08:01:29;;;;;;;6.80;1.55;;;;;;;;;;4906871;29;20148;-62
2021/06/29 08:03:55;;;;;;;3.47;1.40;;;;;;;;;;4904011;29;20583;-62
2021/06/29 08:06:21;;;;;;;7.72;2.03;;;;;;;;;;4904068;29;20486;-61
2021/06/29 08:08:46;;;;;;;6.85;1.55;;;;;;;;;;4905230;29;20032;-62
2021/06/29 08:11:12;;;;;;;6.13;1.45;;;;;;;;;;4905000;29;20052;-62
2021/06/29 08:13:39;;;;;;;5.00;1.60;;;;;;;;;;4900776;29;20052;-63
2021/06/29 08:16:05;;;;;;;4.20;1.27;;;;;;;;;;4906053;29;20043;-62
2021/06/29 08:18:31;;;;;;;6.47;1.45;;;;;;;;;;4903348;29;20047;-62
2021/06/29 08:20:58;;;;;;;4.63;1.33;;;;;;;;;;4905651;29;20043;-62
2021/06/29 08:23:27;;;;;;;11.70;1.75;;;;;;;;;;4905037;29;20380;-62
2021/06/29 08:25:53;;;;;;;8.38;1.50;;;;;;;;;;4905490;29;20056;-62
2021/06/29 08:28:20;;;;;;;4.60;1.23;;;;;;;;;;4905570;29;20425;-63
2021/06/29 08:30:46;;;;;;;7.20;1.75;;;;;;;;;;4906018;29;20163;-62
2021/06/29 08:33:12;;;;;;;8.07;1.80;;;;;;;;;;4907345;29;20400;-62
2021/06/29 08:35:38;;;;;;;4.05;1.38;;;;;;;;;;4906510;29;20039;-62
2021/06/29 08:38:05;;;;;;;7.10;1.45;;;;;;;;;;4906314;29;20179;-62
2021/06/29 08:40:31;;;;;;;5.22;1.70;;;;;;;;;;4904593;29;20067;-61
2021/06/29 08:42:56;;;;;;;9.52;1.70;;;;;;;;;;4904170;29;20160;-62
2021/06/29 08:45:22;;;;;;;7.90;2.13;;;;;;;;;;4904678;29;20064;-62
2021/06/29 08:47:50;;;;;;;6.43;1.90;;;;;;;;;;4904771;29;20028;-62
2021/06/29 08:50:16;;;;;;;6.82;1.92;;;;;;;;;;4904938;29;20063;-61
2021/06/29 08:52:45;;;;;;;4.35;1.73;;;;;;;;;;4906158;29;20044;-62
2021/06/29 08:55:11;;;;;;;6.57;1.60;;;;;;;;;;4908441;29;20144;-62
2021/06/29 08:57:37;;;;;;;6.63;1.88;;;;;;;;;;4907100;29;20497;-61
2021/06/29 09:00:07;;;;;;;6.82;1.80;;;;;;;;;;4907681;29;20494;-62
2021/06/29 09:02:38;;;;;;;4.78;1.63;;;;;;;;;;4906899;29;20087;-61
2021/06/29 09:05:16;;;;;;;8.48;1.90;;;;;;;;;;4908555;29;20586;-61
2021/06/29 09:07:44;;;;;;;6.80;1.85;;;;;;;;;;4906062;29;20048;-62
2021/06/29 09:10:10;;;;;;;5.25;1.75;;;;;;;;;;4907139;29;20139;-61
2021/06/29 09:12:46;;;;;;;5.78;1.63;;;;;;;;;;4906607;29;20501;-61
2021/06/29 09:15:26;;;;;;;5.47;1.80;;;;;;;;;;4906594;29;20047;-61
2021/06/29 09:17:53;;;;;;;6.28;1.90;;;;;;;;;;4905888;29;20127;-63
2021/06/29 09:20:29;;;;;;;6.03;1.95;;;;;;;;;;4908725;29;20336;-62
2021/06/29 09:22:56;;;;;;;4.10;1.45;;;;;;;;;;4905688;29;20034;-61
2021/06/29 09:25:23;;;;;;;9.25;1.75;;;;;;;;;;4906524;29;20048;-61
2021/06/29 09:27:50;;;;;;;10.63;2.08;;;;;;;;;;4906509;29;20047;-62
2021/06/29 09:30:35;;;;;;;3.65;1.65;;;;;;;;;;4908489;29;20067;-60
2021/06/29 09:33:02;;;;;;;6.10;1.70;;;;;;;;;;4906161;29;20139;-61
2021/06/29 09:35:28;;;;;;;3.95;1.80;;;;;;;;;;4905757;29;20525;-61
2021/06/29 09:37:55;;;;;;;8.95;2.05;;;;;;;;;;4905410;29;20040;-61
2021/06/29 09:40:21;;;;;;;8.43;1.83;;;;;;;;;;4905723;29;20100;-62
2021/06/29 09:42:48;;;;;;;4.47;1.85;;;;;;;;;;4906674;29;20096;-62
2021/06/29 09:45:35;;;;;;;7.13;2.15;;;;;;;;;;4890122;29;21155;-61
2021/06/29 09:48:03;;;;;;;7.80;2.15;;;;;;;;;;4904955;29;20051;-61
2021/06/29 09:50:48;;;;;;;5.35;1.85;;;;;;;;;;4906190;29;20389;-61
2021/06/29 09:53:21;;;;;;;7.07;1.95;;;;;;;;;;4905855;29;21846;-62
2021/06/29 09:55:48;;;;;;;4.60;1.75;;;;;;;;;;4906148;29;21039;-60
2021/06/29 09:58:15;;;;;;;5.97;1.90;;;;;;;;;;4907464;29;20054;-60
2021/06/29 10:00:45;;;;;;;7.47;2.08;;;;;;;;;;4905704;29;20043;-60
2021/06/29 10:03:24;;;;;;;5.30;1.80;;;;;;;;;;4905105;29;20051;-61
2021/06/29 10:05:53;;;;;;;5.60;2.08;;;;;;;;;;4905003;29;20040;-61
2021/06/29 10:08:23;;;;;;;6.05;2.40;;;;;;;;;;4906006;29;20045;-61
2021/06/29 10:10:49;;;;;;;8.18;1.92;;;;;;;;;;4904995;29;20092;-61
2021/06/29 10:13:18;;;;;;;4.63;1.80;;;;;;;;;;4905837;29;20047;-61
2021/06/29 10:15:44;;;;;;;3.90;1.77;;;;;;;;;;4904497;29;20498;-61
2021/06/29 10:18:10;;;;;;;8.85;2.65;;;;;;;;;;4905809;29;20067;-61
2021/06/29 10:20:51;;;;;;;9.63;2.85;;;;;;;;;;4904951;29;20711;-61
2021/06/29 10:23:17;;;;;;;11.80;2.53;;;;;;;;;;4904935;29;20052;-60
2021/06/29 10:25:44;;;;;;;8.77;2.78;;;;;;;;;;4904599;29;20071;-62
2021/06/29 10:28:18;;;;;;;11.77;2.92;;;;;;;;;;4904653;29;20047;-62
2021/06/29 10:30:44;;;;;;;12.80;2.83;;;;;;;;;;4904711;29;20605;-59
2021/06/29 10:33:11;;;;;;;11.27;2.72;;;;;;;;;;4904485;29;22139;-62
2021/06/29 10:35:37;;;;;;;10.70;3.08;;;;;;;;;;4904307;29;20520;-60
2021/06/29 10:38:04;;;;;;;9.05;2.33;;;;;;;;;;4905186;29;20031;-61
2021/06/29 10:40:30;;;;;;;10.27;2.35;;;;;;;;;;4904601;29;20048;-61
2021/06/29 10:42:58;;;;;;;11.00;2.53;;;;;;;;;;4904951;29;20036;-61
2021/06/29 10:45:23;;;;;;;10.90;2.78;;;;;;;;;;4903786;29;20056;-61
2021/06/29 10:47:49;;;;;;;14.40;2.90;;;;;;;;;;4904695;29;20036;-62
2021/06/29 10:50:15;;;;;;;18.20;3.10;;;;;;;;;;4905268;29;20368;-62
2021/06/29 10:52:42;;;;;;;13.13;2.72;;;;;;;;;;4902563;29;20036;-60
2021/06/29 10:55:08;;;;;;;20.05;3.25;;;;;;;;;;4905394;29;20862;-62
2021/06/29 10:57:44;;;;;;;9.30;2.70;;;;;;;;;;4886732;29;20044;-61
2021/06/29 11:00:16;;;;;;;10.25;2.95;;;;;;;;;;4904390;29;20040;-60
2021/06/29 11:02:43;;;;;;;14.52;3.10;;;;;;;;;;4903102;29;20731;-61
2021/06/29 11:05:10;;;;;;;14.95;3.45;;;;;;;;;;4905377;29;20056;-61
2021/06/29 11:07:37;;;;;;;13.32;3.35;;;;;;;;;;4902615;29;20047;-61
2021/06/29 11:10:04;;;;;;;14.68;3.00;;;;;;;;;;4904690;29;20032;-61
2021/06/29 11:12:39;;;;;;;11.25;3.33;;;;;;;;;;4904875;29;20059;-61
2021/06/29 11:15:07;;;;;;;10.48;2.75;;;;;;;;;;4904357;29;20036;-62
2021/06/29 11:17:53;;;;;;;15.38;3.40;;;;;;;;;;4903402;29;20044;-61
2021/06/29 11:20:26;;;;;;;10.55;3.55;;;;;;;;;;4905461;29;20250;-62
2021/06/29 11:22:59;;;;;;;13.25;3.45;;;;;;;;;;4904061;29;20305;-61
2021/06/29 11:25:35;;;;;;;15.00;3.38;;;;;;;;;;4904053;29;20679;-62
2021/06/29 11:28:04;;;;;;;18.33;3.83;;;;;;;;;;4903574;29;20036;-62
2021/06/29 11:30:48;;;;;;;10.38;3.10;;;;;;;;;;4903835;29;20098;-62
2021/06/29 11:33:26;;;;;;;19.23;3.92;;;;;;;;;;4904198;29;20047;-62
2021/06/29 11:35:52;;;;;;;10.98;3.58;;;;;;;;;;4904448;29;20047;-62
2021/06/29 11:38:41;;;;;;;11.50;3.83;;;;;;;;;;5020078;28;20437;-63
2021/06/29 11:41:25;;;;;;;13.32;4.07;;;;;;;;;;5010153;28;20045;-64
2021/06/29 11:43:52;;;;;;;10.75;4.03;;;;;;;;;;5009592;28;20584;-64
2021/06/29 11:46:36;;;;;;;12.70;3.63;;;;;;;;;;5011957;28;20065;-62
2021/06/29 11:49:08;;;;;;;14.43;3.42;;;;;;;;;;5023138;28;20038;-61
2021/06/29 11:51:52;;;;;;;7.93;3.22;;;;;;;;;;5009662;28;20034;-61
2021/06/29 11:54:39;;;;;;;14.18;3.58;;;;;;;;;;5008816;28;20644;-60
2021/06/29 11:57:23;;;;;;;7.57;3.50;;;;;;;;;;5017864;28;20107;-63
2021/06/29 11:59:50;;;;;;;13.43;3.92;;;;;;;;;;5025820;28;20044;-64
2021/06/29 12:02:26;;;;;;;9.27;3.40;;;;;;;;;;5009452;28;20034;-63
2021/06/29 12:05:03;;;;;;;17.08;3.83;;;;;;;;;;5023531;28;20227;-62
2021/06/29 12:07:31;;;;;;;18.13;3.75;;;;;;;;;;5010023;28;20561;-64
2021/06/29 12:09:56;;;;;;;11.23;3.20;;;;;;;;;;5009339;28;20749;-64
2021/06/29 12:12:24;;;;;;;15.00;3.67;;;;;;;;;;5004771;28;20095;-61
2021/06/29 12:15:00;;;;;;;16.50;3.83;;;;;;;;;;5007765;28;20038;-63
2021/06/29 12:17:26;;;;;;;13.05;4.43;;;;;;;;;;5007109;28;20054;-62
2021/06/29 12:20:03;;;;;;;9.18;3.40;;;;;;;;;;5006487;28;20664;-64
2021/06/29 12:22:33;;;;;;;13.50;3.85;;;;;;;;;;5001120;28;20045;-64
2021/06/29 12:25:00;;;;;;;16.52;4.30;;;;;;;;;;5009634;28;20350;-61
2021/06/29 12:27:26;;;;;;;8.90;3.88;;;;;;;;;;5010067;28;20095;-61
2021/06/29 12:29:52;;;;;;;15.68;4.55;;;;;;;;;;5002661;28;20438;-63
2021/06/29 12:32:19;;;;;;;11.75;4.55;;;;;;;;;;5018706;28;20053;-62
2021/06/29 12:34:46;;;;;;;13.45;4.70;;;;;;;;;;5010480;28;20052;-65
2021/06/29 12:37:12;;;;;;;9.23;4.13;;;;;;;;;;5010862;28;20172;-63
2021/06/29 12:39:39;;;;;;;12.88;5.07;;;;;;;;;;5009871;28;20525;-61
2021/06/29 12:42:09;;;;;;;12.18;5.45;;;;;;;;;;5011717;28;20040;-64
2021/06/29 12:44:35;;;;;;;12.60;4.68;;;;;;;;;;5009735;28;20125;-61
2021/06/29 12:47:02;;;;;;;8.35;4.50;;;;;;;;;;5010776;28;20154;-61
2021/06/29 12:49:28;;;;;;;12.63;4.28;;;;;;;;;;4997352;28;20495;-62
2021/06/29 12:52:13;;;;;;;17.45;5.32;;;;;;;;;;4997148;28;20096;-63
2021/06/29 12:54:41;;;;;;;10.00;5.05;;;;;;;;;;5011171;28;20046;-62
2021/06/29 12:57:08;;;;;;;9.82;4.82;;;;;;;;;;4996463;28;20050;-62
2021/06/29 12:59:36;;;;;;;13.07;4.45;;;;;;;;;;4996395;28;20041;-61
2021/06/29 13:02:23;;;;;;;10.68;4.57;;;;;;;;;;4997008;28;20040;-63
2021/06/29 13:04:58;;;;;;;14.70;4.55;;;;;;;;;;5002715;28;20060;-61
2021/06/29 13:07:24;;;;;;;9.07;4.25;;;;;;;;;;4993485;28;20053;-63
2021/06/29 13:09:50;;;;;;;9.02;4.47;;;;;;;;;;4996747;28;20394;-61
2021/06/29 13:12:21;;;;;;;9.40;4.50;;;;;;;;;;4996713;28;20034;-62
2021/06/29 13:14:58;;;;;;;10.90;4.88;;;;;;;;;;5002007;28;20065;-62
2021/06/29 13:17:25;;;;;;;9.25;3.97;;;;;;;;;;4995402;28;20085;-63
2021/06/29 13:20:03;;;;;;;13.35;4.38;;;;;;;;;;4996957;28;20580;-59
2021/06/29 13:22:37;;;;;;;10.73;4.45;;;;;;;;;;4996237;28;21045;-62
2021/06/29 13:25:03;;;;;;;10.10;4.70;;;;;;;;;;4997706;28;20038;-61
2021/06/29 13:27:30;;;;;;;15.90;4.78;;;;;;;;;;4996180;28;20120;-61
2021/06/29 13:30:06;;;;;;;20.95;5.07;;;;;;;;;;4996072;28;20038;-64
2021/06/29 13:32:36;;;;;;;11.60;4.45;;;;;;;;;;4995432;28;20038;-63
2021/06/29 13:35:05;;;;;;;8.57;4.43;;;;;;;;;;4997044;28;20058;-62
2021/06/29 13:37:36;;;;;;;10.23;4.30;;;;;;;;;;4998272;28;20494;-59
2021/06/29 13:40:14;;;;;;;11.38;4.75;;;;;;;;;;4997297;28;20034;-60
2021/06/29 13:42:40;;;;;;;13.02;5.07;;;;;;;;;;5003302;28;20125;-60
2021/06/29 13:45:07;;;;;;;8.73;4.85;;;;;;;;;;4997234;28;20084;-63
2021/06/29 13:47:45;;;;;;;8.45;5.55;;;;;;;;;;4995956;28;20065;-62
2021/06/29 13:50:11;;;;;;;9.40;5.07;;;;;;;;;;4995947;28;20038;-62
2021/06/29 13:52:51;;;;;;;13.18;5.05;;;;;;;;;;4994654;28;20045;-63
2021/06/29 13:55:17;;;;;;;13.20;4.38;;;;;;;;;;4993945;28;20034;-63
2021/06/29 13:57:43;;;;;;;8.98;4.35;;;;;;;;;;4993132;28;20068;-60
2021/06/29 14:00:26;;;;;;;18.58;5.55;;;;;;;;;;4994679;28;20049;-63
2021/06/29 14:03:02;;;;;;;8.50;5.30;;;;;;;;;;4996283;28;20456;-62
2021/06/29 14:05:32;;;;;;;9.10;4.50;;;;;;;;;;4994756;28;20049;-62
2021/06/29 14:08:10;;;;;;;10.25;5.28;;;;;;;;;;4997176;28;20148;-64
2021/06/29 14:10:36;;;;;;;10.27;4.80;;;;;;;;;;4996127;28;20103;-64
2021/06/29 14:13:02;;;;;;;11.07;4.65;;;;;;;;;;4996210;28;20049;-63
2021/06/29 14:15:28;;;;;;;10.32;4.63;;;;;;;;;;4995166;28;20042;-62
2021/06/29 14:17:54;;;;;;;9.50;5.13;;;;;;;;;;4997094;28;20046;-64
2021/06/29 14:20:20;;;;;;;11.00;4.97;;;;;;;;;;4995094;28;20083;-62
2021/06/29 14:22:46;;;;;;;8.63;4.75;;;;;;;;;;4996120;28;20042;-61
2021/06/29 14:25:11;;;;;;;10.48;4.47;;;;;;;;;;4995850;28;20037;-63
2021/06/29 14:27:37;;;;;;;12.70;4.60;;;;;;;;;;4996194;28;22529;-63
2021/06/29 14:30:04;;;;;;;11.05;4.25;;;;;;;;;;4995295;28;20036;-61
2021/06/29 14:32:30;;;;;;;10.40;4.45;;;;;;;;;;4995135;28;20115;-63
2021/06/29 14:34:55;;;;;;;10.20;4.40;;;;;;;;;;4996331;28;20137;-62
2021/06/29 14:37:21;;;;;;;8.63;3.65;;;;;;;;;;4995139;28;20042;-62
2021/06/29 14:39:47;;;;;;;7.28;4.38;;;;;;;;;;4996581;28;21060;-60
2021/06/29 14:42:13;;;;;;;7.60;4.32;;;;;;;;;;4996450;28;20112;-62
2021/06/29 14:44:39;;;;;;;14.35;4.78;;;;;;;;;;4995959;28;22562;-62
2021/06/29 14:47:05;;;;;;;9.25;4.00;;;;;;;;;;4996574;28;20034;-62
2021/06/29 14:49:33;;;;;;;14.20;4.57;;;;;;;;;;4995324;28;20115;-60
2021/06/29 14:51:59;;;;;;;6.60;3.63;;;;;;;;;;4996718;28;20037;-63